sensor_id;sensor_type;location;lat;lon;timestamp;P1;durP1;ratioP1;P2;durP2;ratioP2
53062;SDS011;40529;52.172;10.548;2023-09-12T00:01:05;18.23;;;11.60;;
53062;SDS011;40529;52.172;10.548;2023-09-12T00:03:31;15.25;;;11.20;;
53062;SDS011;40529;52.172;10.548;2023-09-12T00:05:58;18.85;;;10.77;;
53062;SDS011;40529;52.172;10.548;2023-09-12T00:08:24;19.38;;;11.43;;
53062;SDS011;40529;52.172;10.548;2023-09-12T00:11:01;14.60;;;10.98;;
53062;SDS011;40529;52.172;10.548;2023-09-12T00:13:27;13.48;;;11.27;;
53062;SDS011;40529;52.172;10.548;2023-09-12T00:15:53;17.23;;;11.30;;
53062;SDS011;40529;52.172;10.548;2023-09-12T00:18:19;15.82;;;11.45;;
53062;SDS011;40529;52.172;10.548;2023-09-12T00:20:45;17.55;;;11.57;;
53062;SDS011;40529;52.172;10.548;2023-09-12T00:23:11;14.65;;;10.70;;
53062;SDS011;40529;52.172;10.548;2023-09-12T00:25:37;16.35;;;11.05;;
53062;SDS011;40529;52.172;10.548;2023-09-12T00:28:03;17.25;;;11.30;;
53062;SDS011;40529;52.172;10.548;2023-09-12T00:30:29;17.67;;;12.23;;
53062;SDS011;40529;52.172;10.548;2023-09-12T00:32:55;14.57;;;11.65;;
53062;SDS011;40529;52.172;10.548;2023-09-12T00:35:21;18.48;;;10.75;;
53062;SDS011;40529;52.172;10.548;2023-09-12T00:37:47;18.58;;;11.23;;
53062;SDS011;40529;52.172;10.548;2023-09-12T00:40:13;20.30;;;11.70;;
53062;SDS011;40529;52.172;10.548;2023-09-12T00:42:39;15.25;;;11.15;;
53062;SDS011;40529;52.172;10.548;2023-09-12T00:45:06;15.77;;;10.60;;
53062;SDS011;40529;52.172;10.548;2023-09-12T00:47:32;20.60;;;11.45;;
53062;SDS011;40529;52.172;10.548;2023-09-12T00:49:58;16.05;;;12.02;;
53062;SDS011;40529;52.172;10.548;2023-09-12T00:52:25;14.25;;;11.00;;
53062;SDS011;40529;52.172;10.548;2023-09-12T00:54:52;16.15;;;10.52;;
53062;SDS011;40529;52.172;10.548;2023-09-12T00:57:19;16.33;;;11.55;;
53062;SDS011;40529;52.172;10.548;2023-09-12T00:59:45;15.93;;;11.50;;
53062;SDS011;40529;52.172;10.548;2023-09-12T01:02:11;17.55;;;12.52;;
53062;SDS011;40529;52.172;10.548;2023-09-12T01:04:38;15.20;;;11.57;;
53062;SDS011;40529;52.172;10.548;2023-09-12T01:07:04;19.67;;;12.05;;
53062;SDS011;40529;52.172;10.548;2023-09-12T01:09:31;16.88;;;12.45;;
53062;SDS011;40529;52.172;10.548;2023-09-12T01:11:57;19.30;;;13.10;;
53062;SDS011;40529;52.172;10.548;2023-09-12T01:14:23;17.25;;;13.15;;
53062;SDS011;40529;52.172;10.548;2023-09-12T01:16:49;20.75;;;12.68;;
53062;SDS011;40529;52.172;10.548;2023-09-12T01:19:15;21.17;;;12.43;;
53062;SDS011;40529;52.172;10.548;2023-09-12T01:29:15;20.73;;;12.10;;
53062;SDS011;40529;52.172;10.548;2023-09-12T01:31:41;19.08;;;12.40;;
53062;SDS011;40529;52.172;10.548;2023-09-12T01:34:09;22.95;;;13.57;;
53062;SDS011;40529;52.172;10.548;2023-09-12T01:36:35;18.65;;;13.25;;
53062;SDS011;40529;52.172;10.548;2023-09-12T01:39:01;20.15;;;12.93;;
53062;SDS011;40529;52.172;10.548;2023-09-12T01:41:27;18.90;;;13.32;;
53062;SDS011;40529;52.172;10.548;2023-09-12T01:43:54;21.63;;;13.50;;
53062;SDS011;40529;52.172;10.548;2023-09-12T01:46:21;19.58;;;12.95;;
53062;SDS011;40529;52.172;10.548;2023-09-12T01:48:48;19.45;;;12.65;;
53062;SDS011;40529;52.172;10.548;2023-09-12T01:51:16;20.27;;;12.45;;
53062;SDS011;40529;52.172;10.548;2023-09-12T01:53:43;23.00;;;13.55;;
53062;SDS011;40529;52.172;10.548;2023-09-12T01:56:12;18.40;;;13.13;;
53062;SDS011;40529;52.172;10.548;2023-09-12T01:58:38;20.08;;;13.20;;
53062;SDS011;40529;52.172;10.548;2023-09-12T02:01:04;20.85;;;13.23;;
53062;SDS011;40529;52.172;10.548;2023-09-12T02:03:30;19.02;;;13.35;;
53062;SDS011;40529;52.172;10.548;2023-09-12T02:05:56;16.65;;;11.90;;
53062;SDS011;40529;52.172;10.548;2023-09-12T02:08:22;19.95;;;12.65;;
53062;SDS011;40529;52.172;10.548;2023-09-12T02:10:48;21.17;;;12.48;;
53062;SDS011;40529;52.172;10.548;2023-09-12T02:13:14;18.10;;;12.55;;
53062;SDS011;40529;52.172;10.548;2023-09-12T02:15:40;17.52;;;12.68;;
53062;SDS011;40529;52.172;10.548;2023-09-12T02:18:06;18.15;;;13.20;;
53062;SDS011;40529;52.172;10.548;2023-09-12T02:20:32;20.90;;;13.82;;
53062;SDS011;40529;52.172;10.548;2023-09-12T02:22:58;19.27;;;12.63;;
53062;SDS011;40529;52.172;10.548;2023-09-12T02:25:24;20.85;;;13.05;;
53062;SDS011;40529;52.172;10.548;2023-09-12T02:27:50;17.08;;;12.73;;
53062;SDS011;40529;52.172;10.548;2023-09-12T02:30:16;17.88;;;13.55;;
53062;SDS011;40529;52.172;10.548;2023-09-12T02:32:42;18.05;;;13.80;;
53062;SDS011;40529;52.172;10.548;2023-09-12T02:35:08;16.00;;;13.18;;
53062;SDS011;40529;52.172;10.548;2023-09-12T02:37:34;19.00;;;13.77;;
53062;SDS011;40529;52.172;10.548;2023-09-12T02:40:01;14.73;;;13.13;;
53062;SDS011;40529;52.172;10.548;2023-09-12T02:42:28;19.40;;;13.95;;
53062;SDS011;40529;52.172;10.548;2023-09-12T02:44:54;18.05;;;13.00;;
53062;SDS011;40529;52.172;10.548;2023-09-12T02:47:20;17.48;;;13.60;;
53062;SDS011;40529;52.172;10.548;2023-09-12T02:49:46;18.95;;;13.80;;
53062;SDS011;40529;52.172;10.548;2023-09-12T02:52:12;17.95;;;13.82;;
53062;SDS011;40529;52.172;10.548;2023-09-12T02:54:38;17.83;;;14.27;;
53062;SDS011;40529;52.172;10.548;2023-09-12T02:57:04;20.27;;;13.90;;
53062;SDS011;40529;52.172;10.548;2023-09-12T02:59:31;15.57;;;13.18;;
53062;SDS011;40529;52.172;10.548;2023-09-12T03:01:57;16.50;;;12.95;;
53062;SDS011;40529;52.172;10.548;2023-09-12T03:04:25;18.88;;;14.27;;
53062;SDS011;40529;52.172;10.548;2023-09-12T03:09:19;16.85;;;13.40;;
53062;SDS011;40529;52.172;10.548;2023-09-12T03:11:45;18.25;;;14.00;;
53062;SDS011;40529;52.172;10.548;2023-09-12T03:14:11;20.63;;;15.27;;
53062;SDS011;40529;52.172;10.548;2023-09-12T03:16:37;24.88;;;16.77;;
53062;SDS011;40529;52.172;10.548;2023-09-12T03:19:04;24.52;;;16.48;;
53062;SDS011;40529;52.172;10.548;2023-09-12T03:21:30;18.58;;;14.68;;
53062;SDS011;40529;52.172;10.548;2023-09-12T03:23:56;26.02;;;17.13;;
53062;SDS011;40529;52.172;10.548;2023-09-12T03:26:22;21.48;;;17.13;;
53062;SDS011;40529;52.172;10.548;2023-09-12T03:28:49;23.40;;;18.50;;
53062;SDS011;40529;52.172;10.548;2023-09-12T03:31:16;23.85;;;17.95;;
53062;SDS011;40529;52.172;10.548;2023-09-12T03:33:42;27.88;;;19.02;;
53062;SDS011;40529;52.172;10.548;2023-09-12T03:36:13;23.13;;;19.40;;
53062;SDS011;40529;52.172;10.548;2023-09-12T03:38:39;26.00;;;19.50;;
53062;SDS011;40529;52.172;10.548;2023-09-12T03:41:05;29.70;;;21.10;;
53062;SDS011;40529;52.172;10.548;2023-09-12T03:43:31;28.98;;;21.20;;
53062;SDS011;40529;52.172;10.548;2023-09-12T03:45:58;30.38;;;22.00;;
53062;SDS011;40529;52.172;10.548;2023-09-12T03:48:24;28.92;;;20.88;;
53062;SDS011;40529;52.172;10.548;2023-09-12T03:50:50;31.95;;;23.85;;
53062;SDS011;40529;52.172;10.548;2023-09-12T03:53:17;31.00;;;23.83;;
53062;SDS011;40529;52.172;10.548;2023-09-12T03:55:43;29.75;;;22.75;;
53062;SDS011;40529;52.172;10.548;2023-09-12T03:58:09;30.98;;;23.08;;
53062;SDS011;40529;52.172;10.548;2023-09-12T04:00:35;34.92;;;24.35;;
53062;SDS011;40529;52.172;10.548;2023-09-12T04:03:01;31.23;;;24.15;;
53062;SDS011;40529;52.172;10.548;2023-09-12T04:05:27;30.67;;;22.63;;
53062;SDS011;40529;52.172;10.548;2023-09-12T04:07:53;35.50;;;24.25;;
53062;SDS011;40529;52.172;10.548;2023-09-12T04:10:22;30.35;;;23.63;;
53062;SDS011;40529;52.172;10.548;2023-09-12T04:12:48;30.00;;;23.50;;
53062;SDS011;40529;52.172;10.548;2023-09-12T04:15:14;31.63;;;23.33;;
53062;SDS011;40529;52.172;10.548;2023-09-12T04:17:40;30.02;;;22.58;;
53062;SDS011;40529;52.172;10.548;2023-09-12T04:20:06;28.13;;;22.65;;
53062;SDS011;40529;52.172;10.548;2023-09-12T04:22:32;30.77;;;22.45;;
53062;SDS011;40529;52.172;10.548;2023-09-12T04:24:58;34.88;;;23.48;;
53062;SDS011;40529;52.172;10.548;2023-09-12T04:27:24;29.73;;;23.02;;
53062;SDS011;40529;52.172;10.548;2023-09-12T04:29:50;33.05;;;24.27;;
53062;SDS011;40529;52.172;10.548;2023-09-12T04:32:16;32.58;;;24.77;;
53062;SDS011;40529;52.172;10.548;2023-09-12T04:34:48;36.65;;;24.60;;
53062;SDS011;40529;52.172;10.548;2023-09-12T04:37:14;33.55;;;26.27;;
53062;SDS011;40529;52.172;10.548;2023-09-12T04:39:40;40.20;;;28.90;;
53062;SDS011;40529;52.172;10.548;2023-09-12T04:42:06;40.85;;;30.27;;
53062;SDS011;40529;52.172;10.548;2023-09-12T04:44:39;42.67;;;32.67;;
53062;SDS011;40529;52.172;10.548;2023-09-12T04:47:05;46.83;;;33.28;;
53062;SDS011;40529;52.172;10.548;2023-09-12T04:49:31;47.22;;;34.95;;
53062;SDS011;40529;52.172;10.548;2023-09-12T04:51:57;46.10;;;35.20;;
53062;SDS011;40529;52.172;10.548;2023-09-12T04:54:23;51.20;;;36.50;;
53062;SDS011;40529;52.172;10.548;2023-09-12T04:56:49;48.35;;;34.17;;
53062;SDS011;40529;52.172;10.548;2023-09-12T04:59:15;47.78;;;35.17;;
53062;SDS011;40529;52.172;10.548;2023-09-12T05:01:41;49.35;;;35.83;;
53062;SDS011;40529;52.172;10.548;2023-09-12T05:04:07;42.88;;;34.15;;
53062;SDS011;40529;52.172;10.548;2023-09-12T05:06:34;49.65;;;35.40;;
53062;SDS011;40529;52.172;10.548;2023-09-12T05:09:00;43.88;;;33.47;;
53062;SDS011;40529;52.172;10.548;2023-09-12T05:11:26;42.13;;;32.00;;
53062;SDS011;40529;52.172;10.548;2023-09-12T05:13:52;44.30;;;32.67;;
53062;SDS011;40529;52.172;10.548;2023-09-12T05:16:18;45.83;;;32.45;;
53062;SDS011;40529;52.172;10.548;2023-09-12T05:18:45;41.53;;;29.05;;
53062;SDS011;40529;52.172;10.548;2023-09-12T05:21:11;37.38;;;29.58;;
53062;SDS011;40529;52.172;10.548;2023-09-12T05:23:37;41.65;;;30.85;;
53062;SDS011;40529;52.172;10.548;2023-09-12T05:26:03;38.00;;;28.83;;
53062;SDS011;40529;52.172;10.548;2023-09-12T05:28:30;37.90;;;28.13;;
53062;SDS011;40529;52.172;10.548;2023-09-12T05:30:56;35.30;;;27.23;;
53062;SDS011;40529;52.172;10.548;2023-09-12T05:33:22;36.30;;;27.15;;
53062;SDS011;40529;52.172;10.548;2023-09-12T05:35:48;36.25;;;26.95;;
53062;SDS011;40529;52.172;10.548;2023-09-12T05:38:14;32.72;;;25.17;;
53062;SDS011;40529;52.172;10.548;2023-09-12T05:40:40;44.45;;;30.05;;
53062;SDS011;40529;52.172;10.548;2023-09-12T05:43:06;39.35;;;28.10;;
53062;SDS011;40529;52.172;10.548;2023-09-12T05:45:32;43.17;;;30.08;;
53062;SDS011;40529;52.172;10.548;2023-09-12T05:47:59;39.13;;;31.33;;
53062;SDS011;40529;52.172;10.548;2023-09-12T05:50:25;38.90;;;29.02;;
53062;SDS011;40529;52.172;10.548;2023-09-12T05:52:51;38.78;;;28.17;;
53062;SDS011;40529;52.172;10.548;2023-09-12T05:55:17;36.17;;;29.23;;
53062;SDS011;40529;52.172;10.548;2023-09-12T05:57:43;38.22;;;30.08;;
53062;SDS011;40529;52.172;10.548;2023-09-12T06:00:10;42.33;;;29.95;;
53062;SDS011;40529;52.172;10.548;2023-09-12T06:02:37;37.28;;;28.77;;
53062;SDS011;40529;52.172;10.548;2023-09-12T06:05:04;34.78;;;26.75;;
53062;SDS011;40529;52.172;10.548;2023-09-12T06:07:31;35.17;;;26.67;;
53062;SDS011;40529;52.172;10.548;2023-09-12T06:09:57;32.70;;;24.75;;
53062;SDS011;40529;52.172;10.548;2023-09-12T06:12:23;30.92;;;24.77;;
53062;SDS011;40529;52.172;10.548;2023-09-12T06:14:50;28.58;;;23.08;;
53062;SDS011;40529;52.172;10.548;2023-09-12T06:17:18;32.10;;;24.13;;
53062;SDS011;40529;52.172;10.548;2023-09-12T06:19:44;28.92;;;22.95;;
53062;SDS011;40529;52.172;10.548;2023-09-12T06:22:10;32.05;;;22.48;;
53062;SDS011;40529;52.172;10.548;2023-09-12T06:24:36;26.20;;;20.55;;
53062;SDS011;40529;52.172;10.548;2023-09-12T06:27:04;26.80;;;20.00;;
53062;SDS011;40529;52.172;10.548;2023-09-12T06:29:30;25.73;;;20.30;;
53062;SDS011;40529;52.172;10.548;2023-09-12T06:31:56;27.38;;;21.35;;
53062;SDS011;40529;52.172;10.548;2023-09-12T06:34:22;27.80;;;21.33;;
53062;SDS011;40529;52.172;10.548;2023-09-12T06:36:48;26.60;;;18.90;;
53062;SDS011;40529;52.172;10.548;2023-09-12T06:39:14;32.97;;;23.17;;
53062;SDS011;40529;52.172;10.548;2023-09-12T06:41:40;30.48;;;22.88;;
53062;SDS011;40529;52.172;10.548;2023-09-12T06:44:06;29.92;;;21.35;;
53062;SDS011;40529;52.172;10.548;2023-09-12T06:46:36;28.48;;;22.50;;
53062;SDS011;40529;52.172;10.548;2023-09-12T06:49:44;25.85;;;20.65;;
53062;SDS011;40529;52.172;10.548;2023-09-12T14:56:24;3.67;;;3.28;;
53062;SDS011;40529;52.172;10.548;2023-09-12T14:58:50;4.40;;;3.03;;
53062;SDS011;40529;52.172;10.548;2023-09-12T15:01:16;3.35;;;3.05;;
53062;SDS011;40529;52.172;10.548;2023-09-12T15:03:41;4.75;;;3.33;;
53062;SDS011;40529;52.172;10.548;2023-09-12T15:06:07;6.00;;;4.00;;
53062;SDS011;40529;52.172;10.548;2023-09-12T15:08:33;7.18;;;4.90;;
53062;SDS011;40529;52.172;10.548;2023-09-12T15:11:01;5.43;;;4.53;;
53062;SDS011;40529;52.172;10.548;2023-09-12T15:13:28;6.30;;;5.15;;
53062;SDS011;40529;52.172;10.548;2023-09-12T15:15:54;6.93;;;5.72;;
53062;SDS011;40529;52.172;10.548;2023-09-12T15:18:20;8.93;;;5.25;;
53062;SDS011;40529;52.172;10.548;2023-09-12T15:20:46;9.30;;;5.15;;
53062;SDS011;40529;52.172;10.548;2023-09-12T15:23:12;5.55;;;4.47;;
53062;SDS011;40529;52.172;10.548;2023-09-12T15:25:38;5.53;;;4.32;;
53062;SDS011;40529;52.172;10.548;2023-09-12T15:28:04;7.13;;;4.40;;
53062;SDS011;40529;52.172;10.548;2023-09-12T15:30:30;7.80;;;4.40;;
53062;SDS011;40529;52.172;10.548;2023-09-12T15:32:56;6.15;;;4.20;;
53062;SDS011;40529;52.172;10.548;2023-09-12T15:35:22;4.65;;;3.83;;
53062;SDS011;40529;52.172;10.548;2023-09-12T15:37:48;5.18;;;4.10;;
53062;SDS011;40529;52.172;10.548;2023-09-12T15:40:16;4.97;;;4.35;;
53062;SDS011;40529;52.172;10.548;2023-09-12T15:42:42;4.90;;;3.67;;
53062;SDS011;40529;52.172;10.548;2023-09-12T15:45:08;4.68;;;3.20;;
53062;SDS011;40529;52.172;10.548;2023-09-12T15:47:35;3.88;;;3.30;;
53062;SDS011;40529;52.172;10.548;2023-09-12T15:50:01;3.92;;;3.38;;
53062;SDS011;40529;52.172;10.548;2023-09-12T15:52:28;4.82;;;3.25;;
53062;SDS011;40529;52.172;10.548;2023-09-12T15:54:54;3.15;;;2.70;;
53062;SDS011;40529;52.172;10.548;2023-09-12T15:57:20;3.08;;;2.78;;
53062;SDS011;40529;52.172;10.548;2023-09-12T15:59:47;3.90;;;2.67;;
53062;SDS011;40529;52.172;10.548;2023-09-12T16:02:13;3.15;;;2.90;;
53062;SDS011;40529;52.172;10.548;2023-09-12T16:04:39;3.25;;;2.58;;
53062;SDS011;40529;52.172;10.548;2023-09-12T16:07:05;4.43;;;2.92;;
53062;SDS011;40529;52.172;10.548;2023-09-12T16:09:31;3.13;;;2.65;;
53062;SDS011;40529;52.172;10.548;2023-09-12T16:11:57;4.38;;;2.60;;
53062;SDS011;40529;52.172;10.548;2023-09-12T16:14:23;3.67;;;2.95;;
53062;SDS011;40529;52.172;10.548;2023-09-12T16:16:49;5.05;;;3.20;;
53062;SDS011;40529;52.172;10.548;2023-09-12T16:19:15;5.00;;;3.15;;
53062;SDS011;40529;52.172;10.548;2023-09-12T16:21:41;4.35;;;3.17;;
53062;SDS011;40529;52.172;10.548;2023-09-12T16:24:09;4.60;;;3.05;;
53062;SDS011;40529;52.172;10.548;2023-09-12T16:26:36;3.63;;;3.10;;
53062;SDS011;40529;52.172;10.548;2023-09-12T16:29:02;4.63;;;3.65;;
53062;SDS011;40529;52.172;10.548;2023-09-12T16:31:28;5.60;;;3.38;;
53062;SDS011;40529;52.172;10.548;2023-09-12T16:33:54;5.85;;;3.72;;
53062;SDS011;40529;52.172;10.548;2023-09-12T16:36:20;4.70;;;3.22;;
53062;SDS011;40529;52.172;10.548;2023-09-12T16:38:46;3.78;;;3.03;;
53062;SDS011;40529;52.172;10.548;2023-09-12T16:41:12;3.97;;;3.55;;
53062;SDS011;40529;52.172;10.548;2023-09-12T16:43:38;3.47;;;3.13;;
53062;SDS011;40529;52.172;10.548;2023-09-12T16:46:05;3.13;;;2.83;;
53062;SDS011;40529;52.172;10.548;2023-09-12T16:48:31;4.30;;;3.67;;
53062;SDS011;40529;52.172;10.548;2023-09-12T16:50:59;5.28;;;4.00;;
53062;SDS011;40529;52.172;10.548;2023-09-12T16:53:25;4.80;;;3.55;;
53062;SDS011;40529;52.172;10.548;2023-09-12T16:55:52;3.83;;;3.40;;
53062;SDS011;40529;52.172;10.548;2023-09-12T16:58:18;5.35;;;3.83;;
53062;SDS011;40529;52.172;10.548;2023-09-12T17:00:44;4.55;;;4.00;;
53062;SDS011;40529;52.172;10.548;2023-09-12T17:03:10;3.45;;;3.15;;
53062;SDS011;40529;52.172;10.548;2023-09-12T17:05:36;3.75;;;3.45;;
53062;SDS011;40529;52.172;10.548;2023-09-12T17:08:02;4.13;;;3.25;;
53062;SDS011;40529;52.172;10.548;2023-09-12T17:10:28;3.75;;;3.15;;
53062;SDS011;40529;52.172;10.548;2023-09-12T17:12:54;3.72;;;2.90;;
53062;SDS011;40529;52.172;10.548;2023-09-12T17:15:20;3.80;;;2.72;;
53062;SDS011;40529;52.172;10.548;2023-09-12T17:17:46;4.07;;;2.75;;
53062;SDS011;40529;52.172;10.548;2023-09-12T17:20:13;5.22;;;2.97;;
53062;SDS011;40529;52.172;10.548;2023-09-12T17:22:42;4.90;;;2.90;;
53062;SDS011;40529;52.172;10.548;2023-09-12T17:25:08;4.40;;;3.15;;
53062;SDS011;40529;52.172;10.548;2023-09-12T17:27:37;4.55;;;3.22;;
53062;SDS011;40529;52.172;10.548;2023-09-12T17:30:03;6.68;;;3.25;;
53062;SDS011;40529;52.172;10.548;2023-09-12T17:32:29;3.92;;;3.40;;
53062;SDS011;40529;52.172;10.548;2023-09-12T17:34:56;4.10;;;3.40;;
53062;SDS011;40529;52.172;10.548;2023-09-12T17:37:24;4.32;;;3.65;;
53062;SDS011;40529;52.172;10.548;2023-09-12T17:39:50;5.07;;;3.40;;
53062;SDS011;40529;52.172;10.548;2023-09-12T17:42:16;4.40;;;3.85;;
53062;SDS011;40529;52.172;10.548;2023-09-12T17:44:42;3.97;;;3.45;;
53062;SDS011;40529;52.172;10.548;2023-09-12T17:47:08;4.53;;;3.92;;
53062;SDS011;40529;52.172;10.548;2023-09-12T17:49:35;4.53;;;4.03;;
53062;SDS011;40529;52.172;10.548;2023-09-12T17:52:01;7.25;;;4.85;;
53062;SDS011;40529;52.172;10.548;2023-09-12T17:54:27;9.63;;;5.07;;
53062;SDS011;40529;52.172;10.548;2023-09-12T17:56:53;5.55;;;4.68;;
53062;SDS011;40529;52.172;10.548;2023-09-12T17:59:19;6.65;;;4.60;;
53062;SDS011;40529;52.172;10.548;2023-09-12T18:01:45;5.30;;;4.57;;
53062;SDS011;40529;52.172;10.548;2023-09-12T18:04:12;7.10;;;5.10;;
53062;SDS011;40529;52.172;10.548;2023-09-12T18:06:38;6.53;;;4.85;;
53062;SDS011;40529;52.172;10.548;2023-09-12T18:09:04;6.20;;;4.85;;
53062;SDS011;40529;52.172;10.548;2023-09-12T18:11:31;8.60;;;5.18;;
53062;SDS011;40529;52.172;10.548;2023-09-12T18:13:57;6.15;;;5.00;;
53062;SDS011;40529;52.172;10.548;2023-09-12T18:16:23;6.43;;;4.97;;
53062;SDS011;40529;52.172;10.548;2023-09-12T18:18:49;6.35;;;5.15;;
53062;SDS011;40529;52.172;10.548;2023-09-12T18:21:18;6.43;;;5.50;;
53062;SDS011;40529;52.172;10.548;2023-09-12T18:23:44;6.68;;;5.60;;
53062;SDS011;40529;52.172;10.548;2023-09-12T18:26:11;6.93;;;5.78;;
53062;SDS011;40529;52.172;10.548;2023-09-12T18:28:48;7.32;;;6.20;;
53062;SDS011;40529;52.172;10.548;2023-09-12T18:31:16;9.43;;;5.93;;
53062;SDS011;40529;52.172;10.548;2023-09-12T18:33:43;7.18;;;6.47;;
53062;SDS011;40529;52.172;10.548;2023-09-12T18:36:10;9.52;;;6.68;;
53062;SDS011;40529;52.172;10.548;2023-09-12T18:38:38;8.20;;;6.70;;
53062;SDS011;40529;52.172;10.548;2023-09-12T18:41:05;8.05;;;6.43;;
53062;SDS011;40529;52.172;10.548;2023-09-12T18:43:31;9.45;;;7.07;;
53062;SDS011;40529;52.172;10.548;2023-09-12T18:45:57;9.18;;;6.60;;
53062;SDS011;40529;52.172;10.548;2023-09-12T18:48:23;9.60;;;6.75;;
53062;SDS011;40529;52.172;10.548;2023-09-12T18:50:49;8.27;;;6.28;;
53062;SDS011;40529;52.172;10.548;2023-09-12T18:53:19;9.10;;;7.70;;
53062;SDS011;40529;52.172;10.548;2023-09-12T18:55:46;8.40;;;6.78;;
53062;SDS011;40529;52.172;10.548;2023-09-12T18:58:12;6.88;;;5.90;;
53062;SDS011;40529;52.172;10.548;2023-09-12T19:00:39;7.15;;;6.28;;
53062;SDS011;40529;52.172;10.548;2023-09-12T19:03:07;10.35;;;6.18;;
53062;SDS011;40529;52.172;10.548;2023-09-12T19:05:33;5.90;;;5.07;;
53062;SDS011;40529;52.172;10.548;2023-09-12T19:07:59;7.20;;;5.50;;
53062;SDS011;40529;52.172;10.548;2023-09-12T19:10:26;7.03;;;5.20;;
53062;SDS011;40529;52.172;10.548;2023-09-12T19:12:52;6.05;;;4.80;;
53062;SDS011;40529;52.172;10.548;2023-09-12T19:15:18;7.43;;;5.28;;
53062;SDS011;40529;52.172;10.548;2023-09-12T19:17:44;5.45;;;4.75;;
53062;SDS011;40529;52.172;10.548;2023-09-12T19:20:10;6.50;;;5.10;;
53062;SDS011;40529;52.172;10.548;2023-09-12T19:22:39;5.27;;;4.67;;
53062;SDS011;40529;52.172;10.548;2023-09-12T19:25:05;5.28;;;4.43;;
53062;SDS011;40529;52.172;10.548;2023-09-12T19:27:35;4.97;;;3.88;;
53062;SDS011;40529;52.172;10.548;2023-09-12T19:30:02;6.53;;;4.90;;
53062;SDS011;40529;52.172;10.548;2023-09-12T19:32:28;6.25;;;5.30;;
53062;SDS011;40529;52.172;10.548;2023-09-12T19:34:54;8.40;;;5.13;;
53062;SDS011;40529;52.172;10.548;2023-09-12T19:37:20;6.22;;;5.30;;
53062;SDS011;40529;52.172;10.548;2023-09-12T19:39:48;5.93;;;4.93;;
53062;SDS011;40529;52.172;10.548;2023-09-12T19:42:14;6.25;;;5.18;;
53062;SDS011;40529;52.172;10.548;2023-09-12T19:44:40;6.65;;;5.65;;
53062;SDS011;40529;52.172;10.548;2023-09-12T19:47:20;6.95;;;6.25;;
53062;SDS011;40529;52.172;10.548;2023-09-12T19:49:47;6.82;;;5.30;;
53062;SDS011;40529;52.172;10.548;2023-09-12T19:52:13;7.50;;;5.38;;
53062;SDS011;40529;52.172;10.548;2023-09-12T19:54:40;6.47;;;5.70;;
53062;SDS011;40529;52.172;10.548;2023-09-12T19:57:06;7.05;;;5.25;;
53062;SDS011;40529;52.172;10.548;2023-09-12T19:59:32;7.82;;;5.40;;
53062;SDS011;40529;52.172;10.548;2023-09-12T20:01:58;7.38;;;5.72;;
53062;SDS011;40529;52.172;10.548;2023-09-12T20:04:24;7.07;;;5.90;;
53062;SDS011;40529;52.172;10.548;2023-09-12T20:06:55;8.55;;;6.47;;
53062;SDS011;40529;52.172;10.548;2023-09-12T20:09:21;7.30;;;6.13;;
53062;SDS011;40529;52.172;10.548;2023-09-12T20:11:47;8.23;;;6.45;;
53062;SDS011;40529;52.172;10.548;2023-09-12T20:14:13;7.43;;;6.63;;
53062;SDS011;40529;52.172;10.548;2023-09-12T20:16:40;9.65;;;7.18;;
53062;SDS011;40529;52.172;10.548;2023-09-12T20:19:07;8.43;;;7.50;;
53062;SDS011;40529;52.172;10.548;2023-09-12T20:21:33;9.10;;;7.45;;
53062;SDS011;40529;52.172;10.548;2023-09-12T20:23:59;9.95;;;7.65;;
53062;SDS011;40529;52.172;10.548;2023-09-12T20:26:26;10.18;;;8.30;;
53062;SDS011;40529;52.172;10.548;2023-09-12T20:28:52;7.80;;;6.43;;
53062;SDS011;40529;52.172;10.548;2023-09-12T20:31:18;9.38;;;7.78;;
53062;SDS011;40529;52.172;10.548;2023-09-12T20:33:44;8.30;;;7.15;;
53062;SDS011;40529;52.172;10.548;2023-09-12T20:36:10;9.35;;;7.45;;
53062;SDS011;40529;52.172;10.548;2023-09-12T20:38:47;8.60;;;6.97;;
53062;SDS011;40529;52.172;10.548;2023-09-12T20:41:13;7.47;;;6.60;;
53062;SDS011;40529;52.172;10.548;2023-09-12T20:43:39;8.57;;;6.88;;
53062;SDS011;40529;52.172;10.548;2023-09-12T20:46:05;8.05;;;6.80;;
53062;SDS011;40529;52.172;10.548;2023-09-12T20:48:34;7.30;;;6.25;;
53062;SDS011;40529;52.172;10.548;2023-09-12T20:51:07;6.77;;;6.07;;
53062;SDS011;40529;52.172;10.548;2023-09-12T20:53:33;7.47;;;6.60;;
53062;SDS011;40529;52.172;10.548;2023-09-12T20:55:59;7.63;;;6.32;;
53062;SDS011;40529;52.172;10.548;2023-09-12T20:58:25;7.00;;;6.18;;
53062;SDS011;40529;52.172;10.548;2023-09-12T21:00:51;6.80;;;5.90;;
53062;SDS011;40529;52.172;10.548;2023-09-12T21:03:17;8.02;;;6.50;;
53062;SDS011;40529;52.172;10.548;2023-09-12T21:05:44;9.38;;;6.97;;
53062;SDS011;40529;52.172;10.548;2023-09-12T21:08:11;8.75;;;6.22;;
53062;SDS011;40529;52.172;10.548;2023-09-12T21:10:36;8.10;;;6.63;;
53062;SDS011;40529;52.172;10.548;2023-09-12T21:13:03;7.85;;;6.82;;
53062;SDS011;40529;52.172;10.548;2023-09-12T21:15:29;8.35;;;6.85;;
53062;SDS011;40529;52.172;10.548;2023-09-12T21:17:55;7.22;;;6.53;;
53062;SDS011;40529;52.172;10.548;2023-09-12T21:20:21;6.53;;;5.68;;
53062;SDS011;40529;52.172;10.548;2023-09-12T21:22:47;6.88;;;6.03;;
53062;SDS011;40529;52.172;10.548;2023-09-12T21:25:13;8.25;;;5.95;;
53062;SDS011;40529;52.172;10.548;2023-09-12T21:27:40;7.00;;;5.50;;
53062;SDS011;40529;52.172;10.548;2023-09-12T21:30:06;7.72;;;6.38;;
53062;SDS011;40529;52.172;10.548;2023-09-12T21:32:32;8.65;;;6.82;;
53062;SDS011;40529;52.172;10.548;2023-09-12T21:35:14;7.40;;;6.63;;
53062;SDS011;40529;52.172;10.548;2023-09-12T21:37:44;7.30;;;5.93;;
53062;SDS011;40529;52.172;10.548;2023-09-12T21:42:37;7.50;;;6.55;;
53062;SDS011;40529;52.172;10.548;2023-09-12T21:45:03;8.43;;;6.57;;
53062;SDS011;40529;52.172;10.548;2023-09-12T21:47:29;7.03;;;5.97;;
53062;SDS011;40529;52.172;10.548;2023-09-12T21:49:55;6.95;;;6.25;;
53062;SDS011;40529;52.172;10.548;2023-09-12T21:52:21;9.65;;;6.15;;
53062;SDS011;40529;52.172;10.548;2023-09-12T21:54:48;8.35;;;6.78;;
53062;SDS011;40529;52.172;10.548;2023-09-12T21:57:13;8.77;;;6.50;;
53062;SDS011;40529;52.172;10.548;2023-09-12T21:59:40;7.57;;;6.63;;
53062;SDS011;40529;52.172;10.548;2023-09-12T22:02:06;7.20;;;5.88;;
53062;SDS011;40529;52.172;10.548;2023-09-12T22:04:32;6.75;;;6.05;;
53062;SDS011;40529;52.172;10.548;2023-09-12T22:06:58;8.52;;;6.57;;
53062;SDS011;40529;52.172;10.548;2023-09-12T22:09:24;7.07;;;6.38;;
53062;SDS011;40529;52.172;10.548;2023-09-12T22:11:50;8.20;;;6.22;;
53062;SDS011;40529;52.172;10.548;2023-09-12T22:14:16;7.32;;;6.15;;
53062;SDS011;40529;52.172;10.548;2023-09-12T22:16:42;8.43;;;6.65;;
53062;SDS011;40529;52.172;10.548;2023-09-12T22:19:08;7.50;;;6.70;;
53062;SDS011;40529;52.172;10.548;2023-09-12T22:21:34;10.75;;;7.60;;
53062;SDS011;40529;52.172;10.548;2023-09-12T22:24:00;10.65;;;8.18;;
53062;SDS011;40529;52.172;10.548;2023-09-12T22:26:26;10.43;;;8.60;;
53062;SDS011;40529;52.172;10.548;2023-09-12T22:28:53;9.07;;;7.57;;
53062;SDS011;40529;52.172;10.548;2023-09-12T22:31:19;10.32;;;7.85;;
53062;SDS011;40529;52.172;10.548;2023-09-12T22:33:45;9.88;;;8.10;;